Time;durP1;ratioP1;P1;durP2;ratioP2;P2;SDS_P1;SDS_P2;PMS_P1;PMS_P2;Temp;Humidity;BMP_temperature;BMP_pressure;BME280_temperature;BME280_humidity;BME280_pressure;Samples;Min_cycle;Max_cycle;Signal;HPM_P1;HPM_P2
2022/01/19 05:13:27;;;;;;;;;;;;;;;3.44;77.72;98201.69;4213004;28;5627;-76
2022/01/19 05:15:29;;;;;;;;;;;;;;;3.52;77.34;98197.69;4231458;28;5680;-76
2022/01/19 05:17:30;;;;;;;;;;;;;;;3.63;77.30;98197.72;4198318;28;5671;-77
2022/01/19 05:19:32;;;;;;;;;;;;;;;3.63;77.05;98198.53;4193039;28;6881;-77
2022/01/19 05:21:36;;;;;;;;;;;;;;;3.54;77.52;98198.41;4229578;28;5629;-77
2022/01/19 05:23:38;;;;;;;;;;;;;;;3.56;77.54;98196.50;4229325;28;5833;-77
2022/01/19 05:25:41;;;;;;;;;;;;;;;3.65;77.27;98190.59;4197444;28;5786;-77
2022/01/19 05:27:42;;;;;;;;;;;;;;;3.58;77.27;98189.38;4230893;28;5540;-77
2022/01/19 05:29:44;;;;;;;;;;;;;;;3.40;77.79;98181.97;4233327;28;5513;-77
2022/01/19 05:31:45;;;;;;;;;;;;;;;3.34;78.66;98182.41;4213444;28;6340;-77
2022/01/19 05:33:47;;;;;;;;;;;;;;;3.50;78.18;98177.69;4211403;28;5762;-77
2022/01/19 05:35:48;;;;;;;;;;;;;;;3.64;77.80;98178.47;4215299;28;5631;-77
2022/01/19 05:37:50;;;;;;;;;;;;;;;3.48;78.14;98176.16;4194263;28;6370;-77
2022/01/19 05:39:51;;;;;;;;;;;;;;;3.64;77.66;98183.69;4229936;28;5623;-77
2022/01/19 05:41:53;;;;;;;;;;;;;;;3.65;78.00;98185.34;4215122;28;5638;-77
2022/01/19 05:43:55;;;;;;;;;;;;;;;3.51;78.58;98178.53;4229627;28;5572;-77
2022/01/19 05:45:56;;;;;;;;;;;;;;;3.36;79.12;98177.06;4213243;28;5540;-77
2022/01/19 05:47:58;;;;;;;;;;;;;;;3.43;78.53;98180.91;4213810;28;5825;-77
2022/01/19 05:50:00;;;;;;;;;;;;;;;3.53;78.15;98181.03;4231007;28;5540;-76
2022/01/19 05:52:01;;;;;;;;;;;;;;;3.60;77.73;98179.63;4216008;28;5540;-78
2022/01/19 05:54:03;;;;;;;;;;;;;;;3.55;77.57;98173.91;4195942;28;5573;-77
2022/01/19 05:56:07;;;;;;;;;;;;;;;3.58;77.59;98173.69;4210987;28;5940;-77
2022/01/19 05:58:09;;;;;;;;;;;;;;;3.48;77.74;98174.38;4193595;28;5827;-77
2022/01/19 06:00:12;;;;;;;;;;;;;;;3.33;78.01;98170.28;4197735;28;5904;-77
2022/01/19 06:02:16;;;;;;;;;;;;;;;3.14;78.70;98172.59;4215133;28;5709;-77
2022/01/19 06:04:18;;;;;;;;;;;;;;;3.27;78.23;98165.50;4212856;28;5638;-77
2022/01/19 06:06:19;;;;;;;;;;;;;;;3.38;77.97;98165.53;4196508;28;5724;-77
2022/01/19 06:10:44;;;;;;;;;;;;;;;3.35;77.69;98173.63;4210932;28;5623;-77
2022/01/19 06:12:45;;;;;;;;;;;;;;;3.31;77.85;98169.56;4187893;28;5547;-76
2022/01/19 06:14:47;;;;;;;;;;;;;;;3.36;77.48;98170.06;4202709;28;5648;-76
2022/01/19 06:16:48;;;;;;;;;;;;;;;3.51;77.46;98173.28;4203179;28;5649;-76
2022/01/19 06:18:50;;;;;;;;;;;;;;;3.48;76.59;98174.38;4187878;28;5706;-76
2022/01/19 06:20:51;;;;;;;;;;;;;;;3.26;77.69;98169.06;4200770;28;5643;-77
2022/01/19 06:22:53;;;;;;;;;;;;;;;3.29;77.82;98174.09;4202200;28;5782;-77
2022/01/19 06:24:56;;;;;;;;;;;;;;;3.32;77.91;98173.84;4203326;28;5650;-76
2022/01/19 06:26:58;;;;;;;;;;;;;;;3.36;77.78;98180.50;4200968;28;5623;-76
2022/01/19 06:29:00;;;;;;;;;;;;;;;3.19;77.71;98178.31;4199246;28;5825;-76
2022/01/19 06:31:01;;;;;;;;;;;;;;;3.20;77.58;98172.16;4184925;28;5555;-76
2022/01/19 06:33:04;;;;;;;;;;;;;;;3.36;77.06;98164.81;4201306;28;6315;-76
2022/01/19 06:35:07;;;;;;;;;;;;;;;3.30;77.23;98162.69;4200659;28;5635;-76
2022/01/19 06:37:10;;;;;;;;;;;;;;;3.08;77.60;98153.00;4181939;28;5864;-76
2022/01/19 06:39:12;;;;;;;;;;;;;;;3.32;77.00;98163.41;4182528;28;5757;-76
2022/01/19 06:41:13;;;;;;;;;;;;;;;3.16;77.00;98157.63;4202792;28;5785;-77
2022/01/19 06:43:15;;;;;;;;;;;;;;;3.05;77.76;98166.25;4184004;28;5650;-77
2022/01/19 06:45:16;;;;;;;;;;;;;;;3.12;77.84;98156.19;4203845;28;5852;-77
2022/01/19 06:47:18;;;;;;;;;;;;;;;3.21;77.59;98163.38;4202227;28;5640;-74
2022/01/19 06:49:20;;;;;;;;;;;;;;;3.16;77.43;98160.25;4187377;28;5837;-75
2022/01/19 06:51:22;;;;;;;;;;;;;;;3.13;77.45;98157.84;4204416;28;5060;-75
2022/01/19 06:53:23;;;;;;;;;;;;;;;3.21;77.43;98155.53;4203507;28;7696;-75
2022/01/19 06:55:25;;;;;;;;;;;;;;;3.14;77.64;98152.53;4203764;28;5626;-76
2022/01/19 06:57:27;;;;;;;;;;;;;;;3.21;77.64;98151.13;4186386;28;5760;-76
2022/01/19 06:59:29;;;;;;;;;;;;;;;3.42;76.99;98155.72;4204359;28;5698;-76
2022/01/19 07:01:32;;;;;;;;;;;;;;;3.53;76.71;98157.50;4203535;28;5638;-76
2022/01/19 07:03:34;;;;;;;;;;;;;;;3.61;76.76;98152.50;4201700;28;5747;-78
2022/01/19 07:05:36;;;;;;;;;;;;;;;3.60;76.55;98154.31;4204630;28;5642;-75
2022/01/19 07:07:37;;;;;;;;;;;;;;;3.60;76.75;98148.25;4197394;28;5751;-74
2022/01/19 07:09:39;;;;;;;;;;;;;;;3.32;77.89;98152.13;4197669;28;5640;-73
2022/01/19 07:11:41;;;;;;;;;;;;;;;3.17;79.12;98149.69;4201443;28;5624;-73
2022/01/19 07:13:42;;;;;;;;;;;;;;;3.14;79.06;98151.69;4200284;28;5639;-74
2022/01/19 07:15:44;;;;;;;;;;;;;;;3.11;79.12;98147.53;4186185;28;5566;-73
2022/01/19 07:17:46;;;;;;;;;;;;;;;3.13;79.12;98152.63;4170756;28;5859;-75
2022/01/19 07:19:47;;;;;;;;;;;;;;;3.19;78.92;98141.75;4187612;28;5631;-77
2022/01/19 07:21:50;;;;;;;;;;;;;;;3.26;78.84;98149.94;4186596;28;5848;-76
2022/01/19 07:23:51;;;;;;;;;;;;;;;3.38;78.41;98146.41;4186284;28;5829;-75
2022/01/19 07:25:54;;;;;;;;;;;;;;;3.52;78.07;98148.00;4186275;28;5973;-74
2022/01/19 07:27:57;;;;;;;;;;;;;;;3.32;78.41;98145.09;4193450;28;5729;-74
2022/01/19 07:29:58;;;;;;;;;;;;;;;3.13;78.88;98150.03;4182566;28;5599;-72
2022/01/19 07:32:00;;;;;;;;;;;;;;;3.04;79.50;98154.13;4199756;28;5062;-75
2022/01/19 07:34:02;;;;;;;;;;;;;;;3.08;79.11;98160.00;4177860;28;8420;-74
2022/01/19 07:36:04;;;;;;;;;;;;;;;3.20;79.14;98148.63;4198791;28;5648;-74
2022/01/19 07:38:05;;;;;;;;;;;;;;;3.11;78.77;98144.91;4195731;28;5642;-75
2022/01/19 07:40:11;;;;;;;;;;;;;;;3.15;78.88;98150.75;4191741;28;5790;-75
2022/01/19 07:42:13;;;;;;;;;;;;;;;3.21;78.83;98147.69;4185046;28;5638;-73
2022/01/19 07:44:16;;;;;;;;;;;;;;;3.07;79.03;98147.88;4199386;28;5682;-75
2022/01/19 07:46:18;;;;;;;;;;;;;;;3.16;78.76;98148.00;4200003;28;5619;-73
2022/01/19 07:48:20;;;;;;;;;;;;;;;3.10;78.84;98143.25;4201397;28;5682;-74
2022/01/19 07:50:21;;;;;;;;;;;;;;;3.24;78.44;98141.38;4200655;28;5785;-74
2022/01/19 07:52:26;;;;;;;;;;;;;;;3.30;78.14;98139.16;4200471;28;5631;-74
2022/01/19 07:54:28;;;;;;;;;;;;;;;3.44;77.51;98141.56;4201115;28;5812;-74
2022/01/19 07:56:30;;;;;;;;;;;;;;;3.50;77.56;98146.31;4200237;28;5638;-74
2022/01/19 07:58:32;;;;;;;;;;;;;;;3.55;76.93;98155.59;4200475;28;5619;-74
2022/01/19 08:00:35;;;;;;;;;;;;;;;3.63;77.17;98153.25;4200079;28;5618;-74
2022/01/19 08:02:36;;;;;;;;;;;;;;;3.55;76.86;98153.81;4165937;28;6470;-73
2022/01/19 08:04:40;;;;;;;;;;;;;;;3.40;77.33;98152.38;4200046;28;5635;-73
2022/01/19 08:06:42;;;;;;;;;;;;;;;3.57;77.11;98153.72;4183592;28;5876;-77
2022/01/19 08:08:44;;;;;;;;;;;;;;;3.70;76.78;98157.06;4200207;28;5893;-76
2022/01/19 08:10:48;;;;;;;;;;;;;;;3.62;76.36;98154.19;4191941;28;5647;-75
2022/01/19 08:12:51;;;;;;;;;;;;;;;3.75;76.59;98155.78;4201566;28;5093;-75
2022/01/19 08:14:53;;;;;;;;;;;;;;;3.57;76.54;98154.53;4184168;28;7709;-75
2022/01/19 08:16:56;;;;;;;;;;;;;;;3.66;76.42;98150.41;4182941;28;5143;-75
2022/01/19 08:18:58;;;;;;;;;;;;;;;3.76;76.40;98152.19;4201395;28;8125;-76
2022/01/19 08:20:59;;;;;;;;;;;;;;;3.71;76.45;98148.25;4183835;28;5562;-76
2022/01/19 08:23:03;;;;;;;;;;;;;;;3.66;76.89;98151.22;4200766;28;5717;-75
2022/01/19 08:25:05;;;;;;;;;;;;;;;3.76;76.81;98154.81;4184412;28;5571;-75
2022/01/19 08:27:07;;;;;;;;;;;;;;;3.80;76.54;98155.41;4163822;28;5668;-75
2022/01/19 08:29:09;;;;;;;;;;;;;;;3.81;76.38;98157.06;4201571;28;5635;-76
2022/01/19 08:31:12;;;;;;;;;;;;;;;3.76;76.53;98156.59;4198777;28;5791;-76
2022/01/19 08:33:13;;;;;;;;;;;;;;;3.72;76.58;98150.75;4201071;28;5630;-76
2022/01/19 08:35:15;;;;;;;;;;;;;;;3.75;76.54;98150.53;4200614;28;5639;-75
2022/01/19 08:37:17;;;;;;;;;;;;;;;3.72;76.66;98158.59;4196406;28;5832;-76
2022/01/19 08:39:19;;;;;;;;;;;;;;;3.73;76.49;98152.41;4200631;28;5650;-76
2022/01/19 08:41:21;;;;;;;;;;;;;;;3.64;77.05;98158.38;4199439;28;5706;-77
2022/01/19 08:43:23;;;;;;;;;;;;;;;3.47;77.99;98158.78;4199084;28;5623;-78
2022/01/19 08:45:25;;;;;;;;;;;;;;;3.54;77.77;98167.84;4198844;28;5630;-78
2022/01/19 08:47:26;;;;;;;;;;;;;;;3.60;77.61;98169.16;4199050;28;5623;-78
2022/01/19 08:49:28;;;;;;;;;;;;;;;3.66;77.46;98163.47;4200782;28;5647;-78
2022/01/19 08:51:30;;;;;;;;;;;;;;;3.67;77.65;98165.97;4201238;28;6279;-78
2022/01/19 08:53:32;;;;;;;;;;;;;;;3.71;77.26;98162.16;4202578;28;5631;-78
2022/01/19 08:55:34;;;;;;;;;;;;;;;3.73;77.23;98160.25;4201842;28;5631;-78
2022/01/19 08:57:36;;;;;;;;;;;;;;;3.70;77.43;98162.28;4199996;28;5620;-78
2022/01/19 08:59:38;;;;;;;;;;;;;;;3.58;77.67;98166.66;4201886;28;5650;-78
2022/01/19 09:01:39;;;;;;;;;;;;;;;3.52;78.02;98163.69;4181608;28;5762;-78
2022/01/19 09:03:41;;;;;;;;;;;;;;;3.49;78.11;98164.72;4183495;28;5674;-78
2022/01/19 09:05:45;;;;;;;;;;;;;;;3.35;78.72;98162.34;4199747;28;5721;-78
2022/01/19 09:07:49;;;;;;;;;;;;;;;3.50;78.61;98162.00;4202405;28;5058;-78
2022/01/19 09:09:50;;;;;;;;;;;;;;;3.67;78.01;98165.13;4201094;28;5793;-78
2022/01/19 09:11:52;;;;;;;;;;;;;;;3.74;77.67;98168.97;4202730;28;5667;-78
2022/01/19 09:13:54;;;;;;;;;;;;;;;3.67;77.89;98168.59;4207244;28;5627;-77
2022/01/19 09:15:55;;;;;;;;;;;;;;;3.45;78.92;98166.75;4211852;28;5622;-78
2022/01/19 09:17:57;;;;;;;;;;;;;;;3.52;78.82;98172.38;4194199;28;5658;-77
2022/01/19 09:19:59;;;;;;;;;;;;;;;3.66;78.46;98164.31;4175156;28;5664;-76
2022/01/19 09:22:03;;;;;;;;;;;;;;;3.68;77.85;98169.41;4184437;28;6331;-77
2022/01/19 09:24:05;;;;;;;;;;;;;;;3.68;77.87;98166.81;4166888;28;5581;-78
2022/01/19 09:26:06;;;;;;;;;;;;;;;3.80;77.86;98163.25;4183643;28;5574;-78
2022/01/19 09:28:09;;;;;;;;;;;;;;;3.74;78.03;98161.13;4200493;28;5775;-79
2022/01/19 09:30:16;;;;;;;;;;;;;;;3.82;77.71;98161.34;4182510;28;5784;-78
2022/01/19 09:32:18;;;;;;;;;;;;;;;3.69;78.37;98164.06;4184632;28;5752;-78
2022/01/19 09:34:21;;;;;;;;;;;;;;;3.71;77.92;98169.19;4200555;28;5642;-78
2022/01/19 09:36:32;;;;;;;;;;;;;;;3.82;77.33;98163.13;4200583;28;5643;-78
2022/01/19 09:38:38;;;;;;;;;;;;;;;3.71;77.45;98154.31;4181685;28;5653;-78
2022/01/19 09:40:40;;;;;;;;;;;;;;;3.84;77.22;98159.44;4201478;28;5639;-78
2022/01/19 09:42:46;;;;;;;;;;;;;;;3.89;77.42;98159.94;4184932;28;5890;-78
2022/01/19 09:44:48;;;;;;;;;;;;;;;3.87;77.52;98167.06;4200282;28;5647;-78
2022/01/19 09:46:51;;;;;;;;;;;;;;;3.94;77.46;98162.19;4185418;28;5650;-78
2022/01/19 09:48:52;;;;;;;;;;;;;;;3.97;77.08;98175.06;4188167;28;5642;-78
2022/01/19 09:50:57;;;;;;;;;;;;;;;3.93;77.09;98174.44;4197661;28;5806;-78
2022/01/19 09:53:04;;;;;;;;;;;;;;;3.93;77.19;98177.06;4187102;28;5562;-78
2022/01/19 09:55:06;;;;;;;;;;;;;;;3.93;76.99;98169.19;4204111;28;5642;-78
2022/01/19 09:57:08;;;;;;;;;;;;;;;3.95;77.10;98172.53;4186920;28;5666;-78
2022/01/19 09:59:13;;;;;;;;;;;;;;;3.95;76.78;98167.28;4202005;28;5669;-78
2022/01/19 10:01:19;;;;;;;;;;;;;;;3.64;77.96;98168.00;4203006;28;5675;-78
2022/01/19 10:03:23;;;;;;;;;;;;;;;3.68;78.10;98166.81;4204845;28;5691;-78
2022/01/19 10:05:25;;;;;;;;;;;;;;;3.80;78.13;98160.63;4203387;28;5643;-78
2022/01/19 10:07:27;;;;;;;;;;;;;;;3.92;77.38;98158.84;4184967;28;5654;-78
2022/01/19 10:09:29;;;;;;;;;;;;;;;3.82;77.14;98160.50;4202582;28;5628;-78
2022/01/19 10:16:59;;;;;;;;;;;;;;;3.79;77.80;98151.13;4136282;28;5814;-78
2022/01/19 10:18:39;;;;;;;;;;;;;;;3.85;77.77;98155.91;4135899;28;5802;-79
2022/01/19 10:20:42;;;;;;;;;;;;;;;3.82;77.59;98153.50;4141946;28;5643;-78
2022/01/19 10:22:44;;;;;;;;;;;;;;;3.62;78.18;98157.63;4204170;28;5627;-77
2022/01/19 10:24:53;;;;;;;;;;;;;;;3.55;78.02;98153.00;4203538;28;5176;-78
2022/01/19 10:26:55;;;;;;;;;;;;;;;3.69;77.71;98143.16;4187162;28;7697;-77
2022/01/19 10:29:07;;;;;;;;;;;;;;;3.79;77.54;98145.91;4169361;28;5672;-79
2022/01/19 10:31:16;;;;;;;;;;;;;;;3.76;77.91;98151.38;4202784;28;5646;-79
2022/01/19 10:33:18;;;;;;;;;;;;;;;3.72;77.83;98142.91;4186292;28;5059;-79
2022/01/19 10:35:29;;;;;;;;;;;;;;;3.74;77.70;98142.81;4186188;28;7798;-79
2022/01/19 10:37:30;;;;;;;;;;;;;;;3.67;77.99;98144.22;4202854;28;5763;-79
2022/01/19 10:39:46;;;;;;;;;;;;;;;3.59;78.16;98131.72;4186199;28;6326;-79
2022/01/19 10:41:57;;;;;;;;;;;;;;;3.24;79.12;98134.38;4202150;28;5647;-79
2022/01/19 10:43:59;;;;;;;;;;;;;;;3.27;79.17;98126.31;4204033;28;5635;-79
2022/01/19 10:46:26;;;;;;;;;;;;;;;3.33;79.21;98119.78;4202271;28;5634;-79
2022/01/19 10:48:30;;;;;;;;;;;;;;;3.45;78.22;98126.72;4181108;28;5673;-79
2022/01/19 10:50:33;;;;;;;;;;;;;;;3.38;78.70;98115.88;4183531;28;5889;-78
2022/01/19 10:52:40;;;;;;;;;;;;;;;3.51;77.81;98121.00;4183386;28;5651;-78
2022/01/19 10:54:47;;;;;;;;;;;;;;;3.62;77.47;98109.72;4198963;28;5636;-79
2022/01/19 10:56:57;;;;;;;;;;;;;;;3.62;77.09;98117.56;4201960;28;5638;-79
2022/01/19 10:59:04;;;;;;;;;;;;;;;3.69;77.08;98103.91;4202805;28;5627;-79
2022/01/19 11:01:05;;;;;;;;;;;;;;;3.73;76.66;98109.72;4202461;28;5627;-79
2022/01/19 11:03:16;;;;;;;;;;;;;;;3.66;76.70;98104.16;4202427;28;5638;-79
2022/01/19 11:05:46;;;;;;;;;;;;;;;3.75;77.08;98107.84;4203034;28;5631;-77
2022/01/19 11:07:48;;;;;;;;;;;;;;;3.77;77.08;98098.09;4201820;28;5698;-78
2022/01/19 11:10:09;;;;;;;;;;;;;;;3.83;76.32;98095.00;4185101;28;5646;-78
2022/01/19 11:12:15;;;;;;;;;;;;;;;3.75;76.49;98092.16;4185566;28;6008;-78
2022/01/19 11:14:17;;;;;;;;;;;;;;;3.79;76.44;98104.03;4185665;28;5718;-78
2022/01/19 11:16:21;;;;;;;;;;;;;;;3.92;76.37;98093.44;4186370;28;5719;-78
2022/01/19 11:18:29;;;;;;;;;;;;;;;3.95;75.88;98083.56;4185348;28;6407;-78
2022/01/19 11:20:42;;;;;;;;;;;;;;;4.04;75.64;98075.00;4183144;28;5728;-78
2022/01/19 11:23:21;;;;;;;;;;;;;;;4.12;74.74;98078.81;4183773;28;5937;-78
2022/01/19 11:25:45;;;;;;;;;;;;;;;3.69;76.07;98072.53;4185839;28;5722;-78
2022/01/19 11:27:47;;;;;;;;;;;;;;;3.92;76.21;98062.88;4175222;28;5649;-78
2022/01/19 11:30:26;;;;;;;;;;;;;;;4.08;74.03;98052.88;4184557;28;5737;-79
2022/01/19 11:32:27;;;;;;;;;;;;;;;4.22;74.50;98057.03;4181630;28;5877;-78
2022/01/19 11:34:43;;;;;;;;;;;;;;;4.20;74.04;98045.00;4184665;28;6757;-78
2022/01/19 11:36:44;;;;;;;;;;;;;;;4.22;74.07;98043.09;4183465;28;5715;-78
2022/01/19 11:38:53;;;;;;;;;;;;;;;4.21;74.01;98036.22;4147130;28;5815;-78
2022/01/19 11:40:55;;;;;;;;;;;;;;;4.18;73.85;98031.19;4171068;28;5725;-79
2022/01/19 11:43:25;;;;;;;;;;;;;;;4.14;73.81;98028.00;4186060;28;5738;-78
2022/01/19 11:45:38;;;;;;;;;;;;;;;4.18;73.56;98033.81;4176708;28;5888;-78
2022/01/19 11:47:43;;;;;;;;;;;;;;;4.13;74.03;98017.66;4183044;28;5718;-78
2022/01/19 11:50:00;;;;;;;;;;;;;;;4.21;73.99;98021.31;4198585;28;5631;-78
2022/01/19 11:52:03;;;;;;;;;;;;;;;4.20;74.10;98024.06;4185555;28;5707;-78
2022/01/19 11:54:21;;;;;;;;;;;;;;;4.29;73.83;98012.84;4172368;28;6311;-78
2022/01/19 11:56:22;;;;;;;;;;;;;;;4.25;73.91;98007.03;4185246;28;5758;-76
2022/01/19 11:58:25;;;;;;;;;;;;;;;4.18;74.05;98003.22;4183236;28;6379;-77
2022/01/19 12:00:31;;;;;;;;;;;;;;;4.15;74.47;97995.63;4185207;28;5950;-76
2022/01/19 12:02:45;;;;;;;;;;;;;;;4.16;73.91;97999.91;4183144;28;5650;-77
2022/01/19 12:05:10;;;;;;;;;;;;;;;4.28;74.07;97991.06;4181709;28;6558;-76
2022/01/19 12:07:38;;;;;;;;;;;;;;;4.25;74.31;97991.31;4182141;28;5849;-75
2022/01/19 12:09:56;;;;;;;;;;;;;;;4.29;74.37;97979.63;4189355;28;6330;-74
2022/01/19 12:12:14;;;;;;;;;;;;;;;4.17;74.35;97971.94;4201361;28;5721;-74
2022/01/19 12:14:27;;;;;;;;;;;;;;;4.05;74.86;97964.13;4200938;28;5627;-74
2022/01/19 12:18:50;;;;;;;;;;;;;;;4.25;74.85;97959.91;4201009;28;5631;-74
2022/01/19 12:20:52;;;;;;;;;;;;;;;4.24;75.09;97955.63;4201504;28;5702;-73
2022/01/19 12:23:24;;;;;;;;;;;;;;;4.42;74.38;97955.94;4201378;28;6338;-74
2022/01/19 12:25:26;;;;;;;;;;;;;;;4.46;74.27;97948.63;4183342;28;5841;-74
2022/01/19 12:27:35;;;;;;;;;;;;;;;4.48;74.55;97944.09;4184172;28;6633;-74
2022/01/19 12:29:38;;;;;;;;;;;;;;;4.46;74.56;97936.38;4184285;28;5646;-75
2022/01/19 12:31:44;;;;;;;;;;;;;;;4.37;75.15;97926.66;4183537;28;5650;-73
2022/01/19 12:34:02;;;;;;;;;;;;;;;4.47;75.12;97932.81;4202331;28;5639;-74
2022/01/19 12:36:42;;;;;;;;;;;;;;;4.63;74.48;97921.88;4183932;28;6338;-75
2022/01/19 12:38:44;;;;;;;;;;;;;;;4.76;74.24;97924.31;4202110;28;5623;-75
2022/01/19 12:40:48;;;;;;;;;;;;;;;4.72;74.04;97920.28;4183585;28;5750;-74
2022/01/19 12:42:55;;;;;;;;;;;;;;;4.68;73.70;97915.28;4201188;28;5635;-74
2022/01/19 12:45:00;;;;;;;;;;;;;;;4.47;75.10;97913.63;4182396;28;6314;-75
2022/01/19 12:47:03;;;;;;;;;;;;;;;4.73;74.47;97912.28;4182362;28;5757;-75
2022/01/19 12:49:26;;;;;;;;;;;;;;;4.78;74.12;97898.81;4200532;28;5650;-75
2022/01/19 12:51:41;;;;;;;;;;;;;;;4.80;74.57;97905.56;4200768;28;5607;-75
2022/01/19 12:53:43;;;;;;;;;;;;;;;4.95;73.99;97906.88;4180171;28;5647;-77
2022/01/19 12:55:48;;;;;;;;;;;;;;;5.12;73.64;97912.50;4196996;28;5647;-75
2022/01/19 12:57:51;;;;;;;;;;;;;;;5.19;73.86;97896.06;4183786;28;5643;-74
2022/01/19 12:59:55;;;;;;;;;;;;;;;5.24;73.56;97907.00;4182996;28;5662;-75
2022/01/19 13:01:57;;;;;;;;;;;;;;;5.39;73.43;97896.16;4199895;28;5635;-74
2022/01/19 13:04:00;;;;;;;;;;;;;;;5.36;73.35;97891.19;4179365;28;5744;-74
2022/01/19 13:06:08;;;;;;;;;;;;;;;5.40;73.37;97895.19;4199873;28;5754;-74
2022/01/19 13:08:10;;;;;;;;;;;;;;;5.45;73.41;97893.00;4204004;28;5630;-74
2022/01/19 13:12:21;;;;;;;;;;;;;;;5.50;73.63;97893.41;4199130;28;5828;-74
2022/01/19 13:14:24;;;;;;;;;;;;;;;5.40;73.67;97889.94;4198015;28;5743;-74
2022/01/19 13:16:44;;;;;;;;;;;;;;;5.49;73.96;97891.75;4181987;28;5554;-73
2022/01/19 13:18:48;;;;;;;;;;;;;;;5.58;73.96;97888.34;4201190;28;5635;-74
2022/01/19 13:20:55;;;;;;;;;;;;;;;5.55;73.90;97886.00;4200308;28;5842;-75
2022/01/19 13:22:58;;;;;;;;;;;;;;;5.63;73.79;97874.81;4204485;28;5667;-75
2022/01/19 13:25:01;;;;;;;;;;;;;;;5.65;73.90;97878.94;4204080;28;6311;-74
2022/01/19 13:27:05;;;;;;;;;;;;;;;5.73;73.59;97873.84;4169456;28;5807;-75
2022/01/19 13:29:19;;;;;;;;;;;;;;;5.78;73.86;97868.22;4202304;28;6647;-75
2022/01/19 13:31:23;;;;;;;;;;;;;;;5.88;74.02;97865.56;4169123;28;5674;-75
2022/01/19 13:33:26;;;;;;;;;;;;;;;5.92;73.74;97853.88;4186110;28;5802;-76
2022/01/19 13:35:28;;;;;;;;;;;;;;;5.87;73.96;97862.13;4203917;28;5619;-75
2022/01/19 13:37:32;;;;;;;;;;;;;;;5.59;74.61;97858.53;4204664;28;5615;-74
2022/01/19 13:39:34;;;;;;;;;;;;;;;5.72;74.40;97853.84;4204102;28;5806;-74
2022/01/19 13:41:43;;;;;;;;;;;;;;;5.76;74.62;97847.34;4204267;28;5214;-74
2022/01/19 13:43:44;;;;;;;;;;;;;;;5.68;74.47;97843.75;4202957;28;7340;-75
2022/01/19 13:50:14;;;;;;;;;;;;;;;5.97;73.74;97841.16;4196391;28;6300;-75
2022/01/19 13:52:20;;;;;;;;;;;;;;;6.00;73.97;97838.25;4203485;28;5638;-75
2022/01/19 13:54:23;;;;;;;;;;;;;;;6.05;74.26;97841.31;4203239;28;5694;-73
2022/01/19 13:56:31;;;;;;;;;;;;;;;6.06;74.08;97837.72;4176217;28;5558;-75
2022/01/19 13:58:38;;;;;;;;;;;;;;;6.08;74.33;97838.41;4204510;28;5678;-78
2022/01/19 14:00:58;;;;;;;;;;;;;;;6.09;74.29;97840.03;4201547;28;5631;-76
2022/01/19 14:03:06;;;;;;;;;;;;;;;6.12;74.59;97839.78;4168902;28;5690;-76
2022/01/19 14:05:08;;;;;;;;;;;;;;;5.94;74.85;97842.28;4199011;28;5642;-76
2022/01/19 14:07:14;;;;;;;;;;;;;;;5.93;75.72;97839.78;4192157;28;5649;-74
2022/01/19 14:09:21;;;;;;;;;;;;;;;6.08;75.66;97838.41;4168151;28;5673;-77
2022/01/19 14:11:24;;;;;;;;;;;;;;;6.23;75.51;97836.16;4188614;28;5802;-76
2022/01/19 14:13:35;;;;;;;;;;;;;;;6.30;75.47;97853.03;4190913;28;5707;-76
2022/01/19 14:15:40;;;;;;;;;;;;;;;6.30;75.65;97848.59;4194731;28;5650;-75
2022/01/19 14:17:47;;;;;;;;;;;;;;;6.26;76.79;97844.59;4189505;28;5653;-76
2022/01/19 14:19:50;;;;;;;;;;;;;;;6.34;76.93;97852.63;4188364;28;5652;-76
2022/01/19 14:22:14;;;;;;;;;;;;;;;6.41;76.32;97837.94;4186855;28;5718;-77
2022/01/19 14:24:16;;;;;;;;;;;;;;;6.43;75.99;97843.88;4187072;28;5714;-77
2022/01/19 14:26:17;;;;;;;;;;;;;;;6.41;75.70;97837.09;4184814;28;5781;-75
2022/01/19 14:28:21;;;;;;;;;;;;;;;6.42;75.57;97839.59;4186341;28;5722;-76
2022/01/19 14:30:28;;;;;;;;;;;;;;;6.45;75.13;97837.66;4185099;28;5713;-75
2022/01/19 14:32:44;;;;;;;;;;;;;;;6.42;75.48;97836.13;4183284;28;5731;-75
2022/01/19 14:34:46;;;;;;;;;;;;;;;6.38;75.56;97835.59;4186529;28;5813;-74
2022/01/19 14:36:47;;;;;;;;;;;;;;;6.41;74.69;97830.06;4176910;28;5657;-76
2022/01/19 14:38:58;;;;;;;;;;;;;;;6.40;74.95;97833.66;4174742;28;5723;-77
2022/01/19 14:41:18;;;;;;;;;;;;;;;6.45;75.34;97827.13;4167997;28;5743;-76
2022/01/19 14:43:25;;;;;;;;;;;;;;;6.48;75.34;97826.88;4183874;28;5646;-77
2022/01/19 14:45:35;;;;;;;;;;;;;;;6.48;75.50;97830.31;4187354;28;6511;-77
2022/01/19 14:47:38;;;;;;;;;;;;;;;6.55;75.37;97822.69;4184973;28;5748;-77
2022/01/19 14:49:39;;;;;;;;;;;;;;;6.41;76.56;97826.59;4185052;28;5829;-77
2022/01/19 14:51:42;;;;;;;;;;;;;;;6.47;76.40;97827.84;4186425;28;6489;-77
2022/01/19 14:53:44;;;;;;;;;;;;;;;6.43;75.79;97828.09;4186434;28;5750;-77
2022/01/19 14:55:47;;;;;;;;;;;;;;;6.49;75.58;97828.53;4185212;28;5723;-77
2022/01/19 14:58:10;;;;;;;;;;;;;;;6.45;75.77;97830.59;4185731;28;5634;-78
2022/01/19 15:00:12;;;;;;;;;;;;;;;6.43;75.69;97833.38;4183186;28;5699;-77
2022/01/19 15:02:13;;;;;;;;;;;;;;;6.34;75.51;97836.88;4185657;28;5822;-77
2022/01/19 15:04:16;;;;;;;;;;;;;;;6.40;74.72;97833.66;4181734;28;5952;-75
2022/01/19 15:06:18;;;;;;;;;;;;;;;6.42;74.61;97833.50;4183799;28;5654;-74
2022/01/19 15:08:20;;;;;;;;;;;;;;;6.43;74.22;97833.38;4181888;28;5710;-77
2022/01/19 15:10:25;;;;;;;;;;;;;;;6.43;73.74;97833.38;4196361;28;5635;-76
2022/01/19 15:12:27;;;;;;;;;;;;;;;6.40;73.17;97836.28;4183737;28;5653;-79
2022/01/19 15:14:28;;;;;;;;;;;;;;;6.30;73.33;97827.59;4199145;28;5630;-76
2022/01/19 15:16:30;;;;;;;;;;;;;;;6.31;73.18;97826.63;4183945;28;5901;-76
2022/01/19 15:18:32;;;;;;;;;;;;;;;6.30;72.03;97821.50;4173132;28;5588;-78
2022/01/19 15:20:39;;;;;;;;;;;;;;;6.08;72.61;97817.41;4184442;28;5678;-75
2022/01/19 15:22:44;;;;;;;;;;;;;;;6.07;72.12;97818.38;4183641;28;5764;-76
2022/01/19 15:24:49;;;;;;;;;;;;;;;6.17;72.13;97818.34;4186302;28;5674;-80
2022/01/19 15:26:52;;;;;;;;;;;;;;;6.24;70.86;97809.78;4165223;28;5656;-79
2022/01/19 15:28:53;;;;;;;;;;;;;;;6.21;69.60;97812.66;4204091;28;5702;-78
2022/01/19 15:30:56;;;;;;;;;;;;;;;6.16;68.69;97814.06;4202264;28;5642;-79
2022/01/19 15:32:58;;;;;;;;;;;;;;;6.11;69.06;97819.72;4185882;28;5609;-80
2022/01/19 15:35:00;;;;;;;;;;;;;;;6.12;69.52;97813.53;4201223;28;5651;-79
2022/01/19 15:37:04;;;;;;;;;;;;;;;6.14;68.54;97803.72;4198997;28;5714;-79
2022/01/19 15:39:07;;;;;;;;;;;;;;;6.08;67.56;97802.47;4195980;28;5639;-79
2022/01/19 15:41:09;;;;;;;;;;;;;;;6.04;67.82;97802.91;4196929;28;5121;-78
2022/01/19 15:43:18;;;;;;;;;;;;;;;6.05;67.86;97805.38;4190337;28;5646;-78
2022/01/19 15:45:19;;;;;;;;;;;;;;;5.95;67.61;97801.09;4185013;28;5752;-78
2022/01/19 15:47:21;;;;;;;;;;;;;;;6.02;67.84;97808.28;4198743;28;5779;-78
2022/01/19 15:49:23;;;;;;;;;;;;;;;6.01;66.71;97811.06;4200620;28;5739;-78
2022/01/19 15:51:25;;;;;;;;;;;;;;;5.97;67.83;97812.28;4201964;28;5635;-78
2022/01/19 15:53:26;;;;;;;;;;;;;;;5.95;66.89;97807.19;4201889;28;5851;-78
2022/01/19 15:55:29;;;;;;;;;;;;;;;5.92;66.90;97801.41;4201019;28;5846;-77
2022/01/19 15:57:47;;;;;;;;;;;;;;;5.93;66.73;97808.31;4202238;28;5650;-79
2022/01/19 15:59:48;;;;;;;;;;;;;;;5.87;66.58;97809.63;4203314;28;5631;-78
2022/01/19 16:01:50;;;;;;;;;;;;;;;5.87;65.84;97804.38;4202799;28;5747;-78
2022/01/19 16:03:52;;;;;;;;;;;;;;;5.84;66.68;97805.50;4201159;28;5626;-78
2022/01/19 16:05:55;;;;;;;;;;;;;;;5.82;66.54;97804.81;4202571;28;5615;-78
2022/01/19 16:07:57;;;;;;;;;;;;;;;5.84;66.16;97804.66;4198640;28;5737;-78
2022/01/19 16:10:01;;;;;;;;;;;;;;;5.82;66.50;97798.75;4198690;28;5644;-78
2022/01/19 16:12:04;;;;;;;;;;;;;;;5.84;66.48;97805.50;4180501;28;6068;-78
2022/01/19 16:14:11;;;;;;;;;;;;;;;5.79;67.25;97799.03;4179519;28;5650;-77
2022/01/19 16:16:15;;;;;;;;;;;;;;;5.73;67.53;97802.19;4198275;28;5707;-78
2022/01/19 16:18:19;;;;;;;;;;;;;;;5.67;68.47;97800.97;4194354;28;5630;-77
2022/01/19 16:20:22;;;;;;;;;;;;;;;5.65;69.30;97808.13;4206410;28;5773;-79
2022/01/19 16:27:05;;;;;;;;;;;;;;;5.65;69.75;97809.91;4176976;28;5638;-80
2022/01/19 16:29:06;;;;;;;;;;;;;;;5.62;69.10;97818.88;4201977;28;5739;-79
2022/01/19 16:31:10;;;;;;;;;;;;;;;5.57;69.42;97818.50;4200841;28;5622;-78
2022/01/19 16:33:12;;;;;;;;;;;;;;;5.62;70.00;97828.56;4201004;28;5718;-79
2022/01/19 16:35:15;;;;;;;;;;;;;;;5.60;69.79;97826.06;4200434;28;5620;-79
2022/01/19 16:37:17;;;;;;;;;;;;;;;5.59;69.73;97824.41;4197415;28;5840;-79
2022/01/19 16:39:20;;;;;;;;;;;;;;;5.52;70.80;97826.75;4197997;28;5648;-80
2022/01/19 16:41:24;;;;;;;;;;;;;;;5.58;71.03;97830.63;4201132;28;5638;-79